Aviation Digital Data Service (ADDS)

Output produced by METARs form (1509 UTC 21 October 2014)
found at http://aviationweather.gov/adds/metars/
 
KFAY 211140Z 2112/2212 26007KT P6SM FEW110 
     FM220000 32008KT P6SM BKN060